createdAt,value
2023-03-25T00:02:21.672Z,7.63
2023-03-25T00:04:52.039Z,7.66
2023-03-25T00:07:20.148Z,7.66
2023-03-25T00:09:48.860Z,7.70
2023-03-25T00:12:19.601Z,7.74
2023-03-25T00:14:54.483Z,7.75
2023-03-25T00:17:23.080Z,7.77
2023-03-25T00:19:51.963Z,7.75
2023-03-25T00:22:20.255Z,7.79
2023-03-25T00:24:47.890Z,7.82
2023-03-25T00:27:17.563Z,7.82
2023-03-25T00:29:45.566Z,7.84
2023-03-25T00:32:14.608Z,7.85
2023-03-25T00:34:47.722Z,7.88
2023-03-25T00:37:17.628Z,7.89
2023-03-25T00:39:46.151Z,7.94
2023-03-25T00:42:18.010Z,8.03
2023-03-25T00:44:45.826Z,8.06
2023-03-25T00:47:18.356Z,8.10
2023-03-25T00:49:46.419Z,8.11
2023-03-25T00:52:14.355Z,8.13
2023-03-25T00:54:42.000Z,8.18
2023-03-25T00:57:09.782Z,8.21
2023-03-25T00:59:38.887Z,8.24
2023-03-25T01:02:07.178Z,8.25
2023-03-25T01:04:35.226Z,8.28
2023-03-25T01:07:03.550Z,8.31
2023-03-25T01:09:31.687Z,8.33
2023-03-25T01:11:59.406Z,8.31
2023-03-25T01:14:29.076Z,8.35
2023-03-25T01:16:59.836Z,8.38
2023-03-25T01:19:28.199Z,8.37
2023-03-25T01:21:55.880Z,8.37
2023-03-25T01:24:23.767Z,8.39
2023-03-25T01:26:51.388Z,8.40
2023-03-25T01:29:20.700Z,8.40
2023-03-25T01:31:48.540Z,8.39
2023-03-25T01:34:17.702Z,8.41
2023-03-25T01:36:46.680Z,8.39
2023-03-25T01:39:16.574Z,8.38
2023-03-25T01:41:50.128Z,8.38
2023-03-25T01:44:57.254Z,8.33
2023-03-25T01:47:26.704Z,8.32
2023-03-25T01:49:55.858Z,8.28
2023-03-25T01:52:26.317Z,8.26
2023-03-25T01:54:55.581Z,8.27
2023-03-25T01:57:24.513Z,8.27
2023-03-25T01:59:53.352Z,8.26
2023-03-25T02:02:21.373Z,8.16
2023-03-25T02:04:58.897Z,8.19
2023-03-25T02:07:30.863Z,8.15
2023-03-25T02:10:02.130Z,8.13
2023-03-25T02:12:29.862Z,8.04
2023-03-25T02:14:58.420Z,8.03
2023-03-25T02:17:32.965Z,7.95
2023-03-25T02:20:24.830Z,7.94
2023-03-25T02:23:08.570Z,7.89
2023-03-25T02:26:17.290Z,7.82
2023-03-25T02:28:49.621Z,7.73
2023-03-25T02:31:48.378Z,7.73
2023-03-25T02:34:37.924Z,7.68
2023-03-25T02:37:46.962Z,7.68
2023-03-25T02:40:19.679Z,7.61
2023-03-25T02:42:50.532Z,7.55
2023-03-25T02:45:21.292Z,7.54
2023-03-25T02:47:51.497Z,7.53
2023-03-25T02:50:23.229Z,7.56
2023-03-25T02:52:53.048Z,7.60
2023-03-25T02:55:25.448Z,7.62
2023-03-25T02:57:54.726Z,7.57
2023-03-25T03:00:26.736Z,7.59
2023-03-25T03:02:59.832Z,7.51
2023-03-25T03:05:29.414Z,7.49
2023-03-25T03:08:08.950Z,7.41
2023-03-25T03:10:44.343Z,7.36
2023-03-25T03:13:20.458Z,7.28
2023-03-25T03:15:54.403Z,7.18
2023-03-25T03:18:34.191Z,7.14
2023-03-25T03:21:10.356Z,7.13
2023-03-25T03:23:46.032Z,7.11
2023-03-25T03:26:21.622Z,7.10
2023-03-25T03:28:53.150Z,7.08
2023-03-25T03:31:47.536Z,7.00
2023-03-25T03:34:16.385Z,7.02
2023-03-25T03:36:46.445Z,6.95
2023-03-25T03:39:19.915Z,6.94
2023-03-25T03:41:52.562Z,6.90
2023-03-25T03:44:22.233Z,6.88
2023-03-25T03:46:54.684Z,6.83
2023-03-25T03:49:25.048Z,6.83
2023-03-25T03:51:56.872Z,6.81
2023-03-25T03:54:26.794Z,6.80
2023-03-25T03:56:58.284Z,6.80
2023-03-25T03:59:34.662Z,6.80
2023-03-25T04:02:06.025Z,6.79
2023-03-25T04:04:34.862Z,6.79
2023-03-25T04:07:05.332Z,6.83
2023-03-25T04:09:38.472Z,6.85
2023-03-25T04:12:12.140Z,6.85
2023-03-25T04:14:40.349Z,6.84
2023-03-25T04:17:07.998Z,6.82
2023-03-25T04:19:35.689Z,6.83
2023-03-25T04:22:04.465Z,6.83
2023-03-25T04:24:32.727Z,6.87
2023-03-25T04:27:03.400Z,6.93
2023-03-25T04:29:32.662Z,6.93
2023-03-25T04:32:00.355Z,6.94
2023-03-25T04:34:28.087Z,6.96
2023-03-25T04:36:58.416Z,6.97
2023-03-25T04:39:29.780Z,6.95
2023-03-25T04:41:57.516Z,6.95
2023-03-25T04:44:25.924Z,6.96
2023-03-25T04:46:56.130Z,6.91
2023-03-25T04:49:25.107Z,6.87
2023-03-25T04:51:54.322Z,6.82
2023-03-25T04:54:23.478Z,6.79
2023-03-25T04:56:52.412Z,6.74
2023-03-25T04:59:21.146Z,6.67
2023-03-25T05:01:49.287Z,6.63
2023-03-25T05:04:18.891Z,6.63
2023-03-25T05:06:49.376Z,6.64
2023-03-25T05:09:19.184Z,6.64
2023-03-25T05:11:47.377Z,6.64
2023-03-25T05:14:16.762Z,6.63
2023-03-25T05:16:45.329Z,6.64
2023-03-25T05:19:13.657Z,6.67
2023-03-25T05:21:43.226Z,6.72
2023-03-25T05:24:13.413Z,6.76
2023-03-25T05:26:41.988Z,6.82
2023-03-25T05:29:13.913Z,6.85
2023-03-25T05:31:42.214Z,6.84
2023-03-25T05:34:09.892Z,6.92
2023-03-25T05:36:37.503Z,6.89
2023-03-25T05:39:08.407Z,6.86
2023-03-25T05:41:38.678Z,6.86
2023-03-25T05:44:06.889Z,6.84
2023-03-25T05:46:34.567Z,6.84
2023-03-25T05:49:02.357Z,6.80
2023-03-25T05:51:33.759Z,6.78
2023-03-25T05:54:02.162Z,6.81
2023-03-25T05:56:31.289Z,6.82
2023-03-25T05:58:59.017Z,6.84
2023-03-25T06:01:33.291Z,6.83
2023-03-25T06:04:02.832Z,6.88
2023-03-25T06:06:31.932Z,6.89
2023-03-25T06:08:59.824Z,6.86
2023-03-25T06:11:27.480Z,6.81
2023-03-25T06:13:56.430Z,6.82
2023-03-25T06:16:27.832Z,6.75
2023-03-25T06:18:59.498Z,6.70
2023-03-25T06:21:28.665Z,6.66
2023-03-25T06:23:58.263Z,6.64
2023-03-25T06:26:26.445Z,6.54
2023-03-25T06:28:54.659Z,6.50
2023-03-25T06:31:27.732Z,6.45
2023-03-25T06:33:56.819Z,6.41
2023-03-25T06:36:25.798Z,6.36
2023-03-25T06:38:54.244Z,6.30
2023-03-25T06:41:25.074Z,6.34
2023-03-25T06:43:53.330Z,6.30
2023-03-25T06:46:21.040Z,6.32
2023-03-25T06:48:50.081Z,6.29
2023-03-25T06:51:17.763Z,6.29
2023-03-25T06:53:45.420Z,6.22
2023-03-25T06:56:13.477Z,6.23
2023-03-25T06:58:41.837Z,6.21
2023-03-25T07:01:12.586Z,6.34
2023-03-25T07:03:41.116Z,6.37
2023-03-25T07:06:16.147Z,6.47
2023-03-25T07:08:44.016Z,6.54
2023-03-25T07:11:12.031Z,6.63
2023-03-25T07:13:39.697Z,6.68
2023-03-25T07:16:09.332Z,6.65
2023-03-25T07:18:38.805Z,6.55
2023-03-25T07:21:07.454Z,6.54
2023-03-25T07:23:36.493Z,6.62
2023-03-25T07:26:04.134Z,6.64
2023-03-25T07:28:31.897Z,6.75
2023-03-25T07:30:59.703Z,6.80
2023-03-25T07:33:27.452Z,6.71
2023-03-25T07:35:55.440Z,6.65
2023-03-25T07:38:23.103Z,6.59
2023-03-25T07:40:52.076Z,6.58
2023-03-25T07:43:19.742Z,6.88
2023-03-25T07:45:47.640Z,7.28
2023-03-25T07:48:16.276Z,7.60
2023-03-25T07:50:45.711Z,7.86
2023-03-25T07:53:13.299Z,8.07
2023-03-25T07:55:41.014Z,8.24
2023-03-25T07:58:10.435Z,8.25
2023-03-25T08:00:38.083Z,8.44
2023-03-25T08:03:06.621Z,8.58
2023-03-25T08:05:34.438Z,8.70
2023-03-25T08:08:02.035Z,8.51
2023-03-25T08:10:29.758Z,8.46
2023-03-25T08:12:57.399Z,8.25
2023-03-25T08:15:26.853Z,8.29
2023-03-25T08:17:54.561Z,8.33
2023-03-25T08:20:22.282Z,8.40
2023-03-25T08:22:49.952Z,8.33
2023-03-25T08:25:17.620Z,8.32
2023-03-25T08:27:45.351Z,8.26
2023-03-25T08:30:14.608Z,8.37
2023-03-25T08:32:46.324Z,8.43
2023-03-25T08:35:14.606Z,8.47
2023-03-25T08:37:42.258Z,8.53
2023-03-25T08:40:10.286Z,8.44
2023-03-25T08:42:38.719Z,8.48
2023-03-25T08:45:07.459Z,8.43
2023-03-25T08:47:35.285Z,8.14
2023-03-25T08:50:05.046Z,8.22
2023-03-25T08:52:33.038Z,8.18
2023-03-25T08:55:00.933Z,8.21
2023-03-25T08:57:28.617Z,8.30
2023-03-25T08:59:56.274Z,8.47
2023-03-25T09:02:23.953Z,8.61
2023-03-25T09:04:51.674Z,8.46
2023-03-25T09:07:23.223Z,8.39
2023-03-25T09:09:50.963Z,8.49
2023-03-25T09:12:18.584Z,8.79
2023-03-25T09:14:46.239Z,9.04
2023-03-25T09:17:13.866Z,9.20
2023-03-25T09:19:41.534Z,9.15
2023-03-25T09:22:09.211Z,9.28
2023-03-25T09:24:38.871Z,9.51
2023-03-25T09:27:06.535Z,9.48
2023-03-25T09:29:36.945Z,9.45
2023-03-25T09:32:04.643Z,9.76
2023-03-25T09:34:32.298Z,9.72
2023-03-25T09:36:59.915Z,9.76
2023-03-25T09:39:27.866Z,9.64
2023-03-25T09:42:07.979Z,9.60
2023-03-25T09:44:38.306Z,9.76
2023-03-25T09:47:06.602Z,9.88
2023-03-25T09:49:39.064Z,9.99
2023-03-25T09:52:08.088Z,9.98
2023-03-25T09:54:38.728Z,9.94
2023-03-25T09:57:10.419Z,10.14
2023-03-25T09:59:41.581Z,10.24
2023-03-25T10:02:23.165Z,10.22
2023-03-25T10:05:15.450Z,10.46
2023-03-25T10:07:53.688Z,10.48
2023-03-25T10:10:26.371Z,10.32
2023-03-25T10:13:00.758Z,10.36
2023-03-25T10:15:32.276Z,10.53
2023-03-25T10:18:09.815Z,10.51
2023-03-25T10:20:45.449Z,10.38
2023-03-25T10:23:18.405Z,10.32
2023-03-25T10:25:49.259Z,10.42
2023-03-25T10:28:28.985Z,10.51
2023-03-25T10:30:57.057Z,10.44
2023-03-25T10:33:32.158Z,10.36
2023-03-25T10:36:01.233Z,10.33
2023-03-25T10:38:30.246Z,10.20
2023-03-25T10:41:06.973Z,10.16
2023-03-25T10:43:37.809Z,10.13
2023-03-25T10:46:14.348Z,10.16
2023-03-25T10:48:42.057Z,10.26
2023-03-25T10:51:11.085Z,10.35
2023-03-25T10:53:39.136Z,10.42
2023-03-25T10:56:09.209Z,10.52
2023-03-25T10:58:39.654Z,10.49
2023-03-25T11:01:12.876Z,10.35
2023-03-25T11:03:41.975Z,10.32
2023-03-25T11:06:22.356Z,10.34
2023-03-25T11:09:12.262Z,10.16
2023-03-25T11:11:40.164Z,10.08
2023-03-25T11:14:09.567Z,9.98
2023-03-25T11:16:42.544Z,9.89
2023-03-25T11:19:19.605Z,9.84
2023-03-25T11:21:48.676Z,9.83
2023-03-25T11:24:18.425Z,9.83
2023-03-25T11:26:48.271Z,9.85
2023-03-25T11:29:19.239Z,9.99
2023-03-25T11:31:57.049Z,10.03
2023-03-25T11:34:25.347Z,9.96
2023-03-25T11:36:55.956Z,10.10
2023-03-25T11:39:30.405Z,10.16
2023-03-25T11:41:58.974Z,10.17
2023-03-25T11:44:30.101Z,10.20
2023-03-25T11:46:59.169Z,10.21
2023-03-25T11:49:27.313Z,10.33
2023-03-25T11:51:59.013Z,10.36
2023-03-25T11:54:27.256Z,10.51
2023-03-25T11:56:55.910Z,10.61
2023-03-25T11:59:25.898Z,10.73
2023-03-25T12:02:03.304Z,10.78
2023-03-25T12:04:31.398Z,10.86
2023-03-25T12:07:01.960Z,11.04
2023-03-25T12:09:31.434Z,10.93
2023-03-25T12:12:06.672Z,10.99
2023-03-25T12:14:43.193Z,10.93
2023-03-25T12:17:19.610Z,11.01
2023-03-25T12:19:53.970Z,10.92
2023-03-25T12:22:32.155Z,10.96
2023-03-25T12:25:11.968Z,10.89
2023-03-25T12:27:49.580Z,10.90
2023-03-25T12:30:30.849Z,10.63
2023-03-25T12:33:08.126Z,10.70
2023-03-25T12:35:42.411Z,10.51
2023-03-25T12:38:23.881Z,10.51
2023-03-25T12:41:01.315Z,10.55
2023-03-25T12:43:35.875Z,10.31
2023-03-25T12:46:14.316Z,10.26
2023-03-25T12:49:01.634Z,10.11
2023-03-25T12:51:37.299Z,9.94
2023-03-25T12:54:17.175Z,10.32
2023-03-25T12:56:49.249Z,10.36
2023-03-25T12:59:47.929Z,10.27
2023-03-25T13:02:21.405Z,10.08
2023-03-25T13:04:59.006Z,10.47
2023-03-25T13:07:29.634Z,10.71
2023-03-25T13:10:03.697Z,10.70
2023-03-25T13:12:33.805Z,10.73
2023-03-25T13:15:07.776Z,10.99
2023-03-25T13:17:38.563Z,10.94
2023-03-25T13:20:11.073Z,10.85
2023-03-25T13:22:44.138Z,10.88
2023-03-25T13:25:20.744Z,10.97
2023-03-25T13:27:48.787Z,11.03
2023-03-25T13:30:20.473Z,10.99
2023-03-25T13:32:50.832Z,11.06
2023-03-25T13:35:23.179Z,10.85
2023-03-25T13:37:53.868Z,10.94
2023-03-25T13:40:25.218Z,10.72
2023-03-25T13:42:56.594Z,10.83
2023-03-25T13:45:25.733Z,10.88
2023-03-25T13:47:55.764Z,10.98
2023-03-25T13:50:27.830Z,11.05
2023-03-25T13:52:59.191Z,10.90
2023-03-25T13:55:33.012Z,10.87
2023-03-25T13:58:32.057Z,11.01
2023-03-25T14:01:28.885Z,10.83
2023-03-25T14:04:45.405Z,11.09
2023-03-25T14:07:46.499Z,11.15
2023-03-25T14:10:42.670Z,11.34
2023-03-25T14:13:14.058Z,11.27
2023-03-25T14:15:43.418Z,11.17
2023-03-25T14:18:17.638Z,11.29
2023-03-25T14:20:45.989Z,11.21
2023-03-25T14:23:15.790Z,11.28
2023-03-25T14:25:47.553Z,11.19
2023-03-25T14:28:18.655Z,11.27
2023-03-25T14:30:46.500Z,11.40
2023-03-25T14:33:14.231Z,11.43
2023-03-25T14:35:50.005Z,11.37
2023-03-25T14:38:50.968Z,11.18
2023-03-25T14:41:54.894Z,11.23
2023-03-25T14:44:23.585Z,11.39
2023-03-25T14:47:02.554Z,11.36
2023-03-25T14:49:50.093Z,11.43
2023-03-25T14:52:20.737Z,11.25
2023-03-25T14:54:52.915Z,11.29
2023-03-25T14:57:22.949Z,11.30
2023-03-25T14:59:52.857Z,11.30
2023-03-25T15:02:23.135Z,11.36
2023-03-25T15:04:55.260Z,11.38
2023-03-25T15:07:42.879Z,11.26
2023-03-25T15:10:21.242Z,11.27
2023-03-25T15:12:53.635Z,11.28
2023-03-25T15:15:30.507Z,11.27
2023-03-25T15:18:00.192Z,11.31
2023-03-25T15:20:36.041Z,11.06
2023-03-25T15:23:38.510Z,10.86
2023-03-25T15:26:09.620Z,10.99
2023-03-25T15:29:06.506Z,11.03
2023-03-25T15:31:48.261Z,11.11
2023-03-25T15:34:25.414Z,11.03
2023-03-25T15:37:14.221Z,10.90
2023-03-25T15:40:03.388Z,10.94
2023-03-25T15:42:51.706Z,10.80
2023-03-25T15:45:56.934Z,10.79
2023-03-25T15:49:12.124Z,10.81
2023-03-25T15:51:54.314Z,10.73
2023-03-25T15:54:34.340Z,10.65
2023-03-25T15:57:06.431Z,10.67
2023-03-25T15:59:39.379Z,10.53
2023-03-25T16:02:18.445Z,10.45
2023-03-25T16:04:48.283Z,10.41
2023-03-25T16:07:18.383Z,10.34
2023-03-25T16:09:47.779Z,10.23
2023-03-25T16:12:20.483Z,10.17
2023-03-25T16:14:49.257Z,10.23
2023-03-25T16:17:18.788Z,10.19
2023-03-25T16:19:49.539Z,10.22
2023-03-25T16:22:21.465Z,10.17
2023-03-25T16:24:50.130Z,10.19
2023-03-25T16:27:23.617Z,10.10
2023-03-25T16:29:52.834Z,10.09
2023-03-25T16:32:24.425Z,9.98
2023-03-25T16:34:53.877Z,9.94
2023-03-25T16:37:22.707Z,9.84
2023-03-25T16:39:54.325Z,9.83
2023-03-25T16:42:27.382Z,9.78
2023-03-25T16:44:55.515Z,9.64
2023-03-25T16:47:24.764Z,9.66
2023-03-25T16:49:54.597Z,9.59
2023-03-25T16:52:26.151Z,9.45
2023-03-25T16:55:27.612Z,9.41
2023-03-25T16:57:55.629Z,9.31
2023-03-25T17:00:24.482Z,9.26
2023-03-25T17:02:54.179Z,9.19
2023-03-25T17:05:23.705Z,9.15
2023-03-25T17:07:58.118Z,9.11
2023-03-25T17:10:27.430Z,9.00
2023-03-25T17:12:57.852Z,8.90
2023-03-25T17:15:26.913Z,8.79
2023-03-25T17:18:01.185Z,8.75
2023-03-25T17:20:34.633Z,8.58
2023-03-25T17:23:04.456Z,8.53
2023-03-25T17:25:34.977Z,8.45
2023-03-25T17:28:09.064Z,8.37
2023-03-25T17:30:42.788Z,8.38
2023-03-25T17:33:15.581Z,8.34
2023-03-25T17:35:45.277Z,8.33
2023-03-25T17:38:19.593Z,8.23
2023-03-25T17:40:47.317Z,8.15
2023-03-25T17:43:19.954Z,8.10
2023-03-25T17:45:48.154Z,8.09
2023-03-25T17:48:18.181Z,8.07
2023-03-25T17:50:53.298Z,8.01
2023-03-25T17:53:21.227Z,8.01
2023-03-25T17:55:49.580Z,8.05
2023-03-25T17:58:17.880Z,8.01
2023-03-25T18:00:46.396Z,8.01
2023-03-25T18:03:15.304Z,7.90
2023-03-25T18:05:45.675Z,7.84
2023-03-25T18:08:14.389Z,7.85
2023-03-25T18:10:44.107Z,7.81
2023-03-25T18:13:12.469Z,7.81
2023-03-25T18:15:40.714Z,7.82
2023-03-25T18:18:09.286Z,7.81
2023-03-25T18:20:38.201Z,7.67
2023-03-25T18:23:07.134Z,7.61
2023-03-25T18:25:34.954Z,7.54
2023-03-25T18:28:02.800Z,7.47
2023-03-25T18:30:34.502Z,7.46
2023-03-25T18:33:02.168Z,7.43
2023-03-25T18:35:29.889Z,7.38
2023-03-25T18:37:57.550Z,7.36
2023-03-25T18:40:29.571Z,7.32
2023-03-25T18:42:57.231Z,7.29
2023-03-25T18:45:26.542Z,7.27
2023-03-25T18:47:54.557Z,7.23
2023-03-25T18:50:27.604Z,7.17
2023-03-25T18:52:55.877Z,7.12
2023-03-25T18:55:23.768Z,7.13
2023-03-25T18:57:52.745Z,7.16
2023-03-25T19:00:23.812Z,7.14
2023-03-25T19:02:52.611Z,7.12
2023-03-25T19:05:20.643Z,7.16
2023-03-25T19:07:49.302Z,7.12
2023-03-25T19:10:18.720Z,7.10
2023-03-25T19:12:47.065Z,7.11
2023-03-25T19:15:18.879Z,7.07
2023-03-25T19:17:47.864Z,7.08
2023-03-25T19:20:19.036Z,7.05
2023-03-25T19:22:47.095Z,7.05
2023-03-25T19:25:16.264Z,7.00
2023-03-25T19:27:43.974Z,7.00
2023-03-25T19:30:14.872Z,7.04
2023-03-25T19:32:44.191Z,7.02
2023-03-25T19:35:13.098Z,7.03
2023-03-25T19:37:47.390Z,7.02
2023-03-25T19:40:16.962Z,7.07
2023-03-25T19:42:44.598Z,7.02
2023-03-25T19:45:13.800Z,7.04
2023-03-25T19:47:42.916Z,7.02
2023-03-25T19:50:14.698Z,7.03
2023-03-25T19:52:43.581Z,7.03
2023-03-25T19:55:11.936Z,7.00
2023-03-25T19:57:39.983Z,6.98
2023-03-25T20:00:12.540Z,6.95
2023-03-25T20:02:40.904Z,6.99
2023-03-25T20:05:10.615Z,6.94
2023-03-25T20:07:40.574Z,6.93
2023-03-25T20:10:19.525Z,6.91
2023-03-25T20:12:48.730Z,6.85
2023-03-25T20:15:17.699Z,6.85
2023-03-25T20:17:45.541Z,6.82
2023-03-25T20:20:14.769Z,6.83
2023-03-25T20:22:43.806Z,6.83
2023-03-25T20:25:12.494Z,6.86
2023-03-25T20:27:41.983Z,6.84
2023-03-25T20:30:11.310Z,6.82
2023-03-25T20:32:41.381Z,6.79
2023-03-25T20:35:12.466Z,6.79
2023-03-25T20:37:40.631Z,6.78
2023-03-25T20:40:12.841Z,6.77
2023-03-25T20:42:41.318Z,6.74
2023-03-25T20:45:10.893Z,6.74
2023-03-25T20:47:39.105Z,6.77
2023-03-25T20:50:08.251Z,6.76
2023-03-25T20:52:36.278Z,6.71
2023-03-25T20:55:05.625Z,6.71
2023-03-25T20:57:34.716Z,6.66
2023-03-25T21:00:02.443Z,6.64
2023-03-25T21:02:30.163Z,6.65
2023-03-25T21:04:59.106Z,6.63
2023-03-25T21:07:29.179Z,6.62
2023-03-25T21:09:57.354Z,6.61
2023-03-25T21:12:36.476Z,6.59
2023-03-25T21:15:10.776Z,6.60
2023-03-25T21:17:38.493Z,6.57
2023-03-25T21:20:07.513Z,6.55
2023-03-25T21:22:35.573Z,6.50
2023-03-25T21:25:03.297Z,6.54
2023-03-25T21:27:38.174Z,6.54
2023-03-25T21:30:09.351Z,6.53
2023-03-25T21:32:38.747Z,6.51
2023-03-25T21:35:07.833Z,6.51
2023-03-25T21:37:37.934Z,6.51
2023-03-25T21:40:10.153Z,6.49
2023-03-25T21:42:38.704Z,6.48
2023-03-25T21:45:08.378Z,6.49
2023-03-25T21:47:36.556Z,6.48
2023-03-25T21:50:09.735Z,6.47
2023-03-25T21:52:37.989Z,6.48
2023-03-25T21:55:06.465Z,6.48
2023-03-25T21:57:39.031Z,6.47
2023-03-25T22:00:08.942Z,6.48
2023-03-25T22:02:36.727Z,6.48
2023-03-25T22:05:06.536Z,6.44
2023-03-25T22:07:34.159Z,6.43
2023-03-25T22:10:01.796Z,6.45
2023-03-25T22:12:29.937Z,6.48
2023-03-25T22:14:57.598Z,6.46
2023-03-25T22:17:25.430Z,6.49
2023-03-25T22:19:53.090Z,6.50
2023-03-25T22:22:23.107Z,6.50
2023-03-25T22:24:51.308Z,6.50
2023-03-25T22:27:18.989Z,6.49
2023-03-25T22:29:46.561Z,6.50
2023-03-25T22:32:14.177Z,6.52
2023-03-25T22:34:42.127Z,6.52
2023-03-25T22:37:09.813Z,6.53
2023-03-25T22:39:38.973Z,6.51
2023-03-25T22:42:06.878Z,6.55
2023-03-25T22:44:34.480Z,6.59
2023-03-25T22:47:03.218Z,6.65
2023-03-25T22:49:31.190Z,6.64
2023-03-25T22:51:58.815Z,6.66
2023-03-25T22:54:26.611Z,6.68
2023-03-25T22:56:55.663Z,6.71
2023-03-25T22:59:23.310Z,6.69
2023-03-25T23:02:07.433Z,6.70
2023-03-25T23:04:35.300Z,6.74
2023-03-25T23:07:07.894Z,6.76
2023-03-25T23:09:41.279Z,6.71
2023-03-25T23:12:11.454Z,6.73
2023-03-25T23:14:40.390Z,6.71
2023-03-25T23:17:08.485Z,6.70
2023-03-25T23:19:36.103Z,6.68
2023-03-25T23:22:04.837Z,6.67
2023-03-25T23:24:35.900Z,6.63
2023-03-25T23:27:04.311Z,6.61
2023-03-25T23:29:35.641Z,6.63
2023-03-25T23:32:04.885Z,6.64
2023-03-25T23:34:33.899Z,6.64
2023-03-25T23:37:01.645Z,6.66
2023-03-25T23:39:29.680Z,6.66
2023-03-25T23:41:57.598Z,6.65
2023-03-25T23:44:25.555Z,6.67
2023-03-25T23:46:54.672Z,6.68
2023-03-25T23:49:22.352Z,6.70
2023-03-25T23:51:51.016Z,6.74
2023-03-25T23:54:18.800Z,6.77
2023-03-25T23:56:46.742Z,6.78
2023-03-25T23:59:14.563Z,6.81
